Time;durP1;ratioP1;P1;durP2;ratioP2;P2;SDS_P1;SDS_P2;PMS_P1;PMS_P2;Temp;Humidity;BMP_temperature;BMP_pressure;BME280_temperature;BME280_humidity;BME280_pressure;Samples;Min_cycle;Max_cycle;Signal;HPM_P1;HPM_P2
2020/12/25 00:00:16;;;;;;;6.60;5.90;;;;;;;4.37;80.18;100462.06;5013687;28;20570;-82
2020/12/25 00:02:41;;;;;;;6.87;6.30;;;;;;;4.40;80.31;100459.50;5009663;28;20241;-80
2020/12/25 00:05:07;;;;;;;6.90;6.30;;;;;;;4.40;79.96;100459.50;5013101;28;20230;-83
2020/12/25 00:07:33;;;;;;;7.10;6.47;;;;;;;4.42;80.44;100468.13;5008603;28;20226;-81
2020/12/25 00:09:59;;;;;;;6.40;5.80;;;;;;;4.37;80.18;100468.09;5011419;28;20222;-84
2020/12/25 00:12:25;;;;;;;8.07;6.93;;;;;;;4.37;80.02;100475.84;5010566;28;20194;-80
2020/12/25 00:14:52;;;;;;;6.60;6.07;;;;;;;4.41;79.68;100474.16;5010618;28;20242;-78
2020/12/25 00:17:18;;;;;;;6.53;5.93;;;;;;;4.40;80.10;100475.00;5010343;28;20257;-80
2020/12/25 00:19:43;;;;;;;7.10;6.00;;;;;;;4.41;79.63;100475.88;5010338;28;20215;-83
2020/12/25 00:22:09;;;;;;;6.03;5.40;;;;;;;4.33;79.28;100474.09;5013790;28;20211;-79
2020/12/25 00:24:35;;;;;;;7.50;5.60;;;;;;;4.34;79.62;100485.28;5012211;28;20641;-82
2020/12/25 00:27:01;;;;;;;6.70;4.90;;;;;;;4.09;79.58;100484.25;5012717;28;20222;-82
2020/12/25 00:29:27;;;;;;;9.00;5.77;;;;;;;4.11;79.82;100498.03;5012618;28;20762;-81
2020/12/25 00:31:53;;;;;;;5.57;5.17;;;;;;;4.15;79.38;100486.88;5013011;28;20206;-80
2020/12/25 00:34:19;;;;;;;7.00;5.33;;;;;;;4.21;79.52;100499.84;5016416;28;20261;-80
2020/12/25 00:36:46;;;;;;;5.67;4.87;;;;;;;4.21;79.15;100497.25;5021367;28;20190;-81
2020/12/25 00:39:14;;;;;;;5.50;5.00;;;;;;;4.16;79.10;100510.16;5015644;28;20284;-78
2020/12/25 00:41:40;;;;;;;5.23;4.70;;;;;;;4.17;78.81;100508.41;5026899;28;20205;-83
2020/12/25 00:44:06;;;;;;;5.80;4.43;;;;;;;4.20;78.03;100518.75;5008214;28;20218;-80
2020/12/25 00:46:32;;;;;;;5.80;4.60;;;;;;;4.20;78.31;100517.91;5029204;28;20318;-79
2020/12/25 00:48:59;;;;;;;7.53;4.40;;;;;;;4.13;78.03;100528.19;5018510;28;20257;-82
2020/12/25 00:51:25;;;;;;;6.87;4.40;;;;;;;4.14;78.33;100523.88;4681344;28;10000470;-80
2020/12/25 00:53:51;;;;;;;4.87;4.40;;;;;;;4.12;77.70;100529.06;5012808;28;20211;-81
2020/12/25 00:56:17;;;;;;;5.33;4.83;;;;;;;4.08;78.26;100529.84;5014064;28;20254;-82
2020/12/25 00:58:43;;;;;;;4.70;4.23;;;;;;;4.13;78.03;100532.50;5015218;28;20221;-80
2020/12/25 01:01:10;;;;;;;4.20;3.80;;;;;;;4.08;78.02;100532.44;5016020;28;20198;-83
2020/12/25 01:03:37;;;;;;;5.03;3.90;;;;;;;4.12;77.96;100541.97;5015324;28;20726;-83
2020/12/25 01:06:08;;;;;;;4.57;4.17;;;;;;;3.99;77.67;100542.69;5025368;28;20207;-81
2020/12/25 01:08:35;;;;;;;4.83;4.37;;;;;;;4.03;76.59;100548.78;5020957;28;20195;-84
2020/12/25 01:11:01;;;;;;;4.77;3.63;;;;;;;4.05;76.38;100545.34;5030517;28;20312;-85
2020/12/25 01:13:26;;;;;;;4.17;3.70;;;;;;;4.05;77.19;100549.66;5006857;28;20215;-84
2020/12/25 01:15:52;;;;;;;5.53;4.53;;;;;;;4.00;77.18;100559.06;5015460;28;20231;-83
2020/12/25 01:18:18;;;;;;;5.80;4.03;;;;;;;3.95;76.95;100565.03;5018434;28;20601;-85
2020/12/25 01:20:44;;;;;;;4.60;4.20;;;;;;;3.87;77.05;100563.25;5003699;28;20204;-82
2020/12/25 01:23:11;;;;;;;4.87;3.83;;;;;;;3.80;77.75;100571.75;5019110;28;20213;-85
2020/12/25 01:25:37;;;;;;;5.20;3.87;;;;;;;3.87;77.75;100578.75;5011775;28;20230;-82
2020/12/25 01:28:03;;;;;;;5.03;3.77;;;;;;;3.81;77.45;100578.69;5011642;28;20248;-84
2020/12/25 01:30:28;;;;;;;3.80;3.40;;;;;;;3.85;77.66;100583.88;5014500;28;20974;-83
2020/12/25 01:32:54;;;;;;;5.43;3.70;;;;;;;3.86;76.63;100584.75;5009563;28;20233;-83
2020/12/25 01:35:20;;;;;;;5.33;3.23;;;;;;;3.86;76.47;100588.19;5018386;28;20250;-82
2020/12/25 01:37:46;;;;;;;4.20;3.53;;;;;;;3.86;76.83;100589.91;5011941;28;20195;-84
2020/12/25 01:40:13;;;;;;;3.77;3.40;;;;;;;3.84;77.09;100589.88;5018023;28;20663;-81
2020/12/25 01:42:39;;;;;;;3.67;3.37;;;;;;;3.81;77.13;100592.44;5010980;28;20234;-84
2020/12/25 01:45:05;;;;;;;4.27;3.63;;;;;;;3.79;76.90;100588.97;5013334;28;20702;-84
2020/12/25 01:47:31;;;;;;;4.23;3.83;;;;;;;3.76;76.79;100594.09;5017115;28;20218;-84
2020/12/25 01:49:59;;;;;;;4.97;3.30;;;;;;;3.81;76.40;100589.88;5015861;28;20609;-84
2020/12/25 01:52:25;;;;;;;3.30;3.00;;;;;;;3.80;76.19;100598.44;5007858;28;20230;-85
2020/12/25 01:54:53;;;;;;;3.90;3.53;;;;;;;3.80;76.80;100600.16;5013499;28;20231;-82
2020/12/25 01:57:21;;;;;;;3.60;3.30;;;;;;;3.82;75.04;100607.06;5010706;28;20199;-85
2020/12/25 01:59:47;;;;;;;3.87;3.53;;;;;;;3.74;75.44;100611.28;5019778;28;20215;-84
2020/12/25 02:02:14;;;;;;;4.40;3.90;;;;;;;3.73;75.90;100622.47;5015860;28;20207;-83
2020/12/25 02:04:40;;;;;;;3.63;3.20;;;;;;;3.55;74.25;100631.72;5009264;28;20230;-84
2020/12/25 02:07:06;;;;;;;3.90;3.23;;;;;;;3.53;74.06;100643.75;5023800;28;20229;-84
2020/12/25 02:09:32;;;;;;;3.37;3.07;;;;;;;3.49;74.07;100634.22;5021317;28;20213;-82
2020/12/25 02:11:58;;;;;;;4.30;3.40;;;;;;;3.52;74.92;100647.16;5025034;28;20206;-84
2020/12/25 02:14:25;;;;;;;3.23;2.93;;;;;;;3.49;74.55;100641.97;5012426;28;20244;-83
2020/12/25 02:16:50;;;;;;;3.50;3.20;;;;;;;3.57;73.73;100648.09;5021571;28;20222;-85
2020/12/25 02:19:16;;;;;;;3.53;3.23;;;;;;;3.52;74.28;100646.28;5015522;28;20641;-84
2020/12/25 02:21:43;;;;;;;3.93;3.33;;;;;;;3.60;74.16;100644.66;5022339;28;20283;-83
2020/12/25 02:24:09;;;;;;;3.47;2.93;;;;;;;3.63;74.15;100642.16;5019403;28;20774;-84
2020/12/25 02:26:35;;;;;;;3.43;2.90;;;;;;;3.65;73.43;100636.97;5019058;28;20225;-84
2020/12/25 02:29:01;;;;;;;3.40;3.10;;;;;;;3.57;74.16;100634.31;5012996;28;20576;-82
2020/12/25 02:31:26;;;;;;;3.30;3.10;;;;;;;3.56;74.21;100637.75;5026582;28;20202;-83
2020/12/25 02:33:52;;;;;;;3.10;2.80;;;;;;;3.61;73.38;100635.22;5018688;28;20233;-84
2020/12/25 02:36:18;;;;;;;2.80;2.60;;;;;;;3.58;73.63;100639.47;5027883;28;20194;-85
2020/12/25 02:38:45;;;;;;;4.07;3.53;;;;;;;3.56;73.75;100646.34;5019358;28;20332;-85
2020/12/25 02:41:11;;;;;;;5.90;2.77;;;;;;;3.60;73.41;100647.25;5028636;28;20221;-82
2020/12/25 02:43:36;;;;;;;4.87;3.23;;;;;;;3.57;74.01;100648.09;5012373;28;20282;-85
2020/12/25 02:46:02;;;;;;;3.50;3.20;;;;;;;3.59;73.93;100658.44;5023343;28;20210;-84
2020/12/25 02:48:28;;;;;;;3.13;2.93;;;;;;;3.48;73.38;100654.84;5018035;28;20206;-84
2020/12/25 02:50:54;;;;;;;3.57;3.20;;;;;;;3.51;73.40;100658.34;5026015;28;20290;-84
2020/12/25 02:53:20;;;;;;;5.10;3.00;;;;;;;3.55;73.11;100662.69;5015361;28;20548;-84
2020/12/25 02:55:47;;;;;;;3.23;3.03;;;;;;;3.52;73.82;100670.38;5025738;28;20229;-83
2020/12/25 02:58:12;;;;;;;3.73;3.23;;;;;;;3.54;74.18;100663.53;5016203;28;20234;-83
2020/12/25 03:00:38;;;;;;;3.70;3.33;;;;;;;3.55;74.05;100667.84;5029051;28;20255;-80
2020/12/25 03:03:04;;;;;;;3.50;3.20;;;;;;;3.60;73.78;100672.22;5013547;28;20261;-80
2020/12/25 03:05:30;;;;;;;3.90;3.17;;;;;;;3.57;74.08;100663.56;5027802;28;20224;-80
2020/12/25 03:07:56;;;;;;;3.20;2.90;;;;;;;3.59;74.56;100673.94;5016019;28;20251;-82
2020/12/25 03:10:22;;;;;;;3.50;3.10;;;;;;;3.57;74.07;100673.03;5024778;28;20210;-80
2020/12/25 03:12:48;;;;;;;3.60;3.30;;;;;;;3.60;73.62;100672.22;5016298;28;20200;-80
2020/12/25 03:15:14;;;;;;;3.73;3.47;;;;;;;3.60;74.14;100674.78;5022170;28;20241;-80
2020/12/25 03:17:40;;;;;;;3.90;3.50;;;;;;;3.54;74.04;100676.44;5034768;28;20201;-80
2020/12/25 03:20:06;;;;;;;3.97;3.67;;;;;;;3.56;74.52;100681.63;5026823;28;20229;-82
2020/12/25 03:22:32;;;;;;;4.37;3.97;;;;;;;3.58;74.22;100683.38;5029828;28;20202;-80
2020/12/25 03:24:57;;;;;;;4.60;4.23;;;;;;;3.36;73.30;100681.34;5017521;28;20261;-80
2020/12/25 03:27:23;;;;;;;4.30;3.90;;;;;;;3.13;74.05;100678.41;5014512;28;20709;-81
2020/12/25 03:29:50;;;;;;;4.37;4.07;;;;;;;3.13;75.27;100687.03;5006458;28;20622;-80
2020/12/25 03:32:16;;;;;;;4.83;4.43;;;;;;;3.27;74.86;100692.41;5017803;28;20290;-80
2020/12/25 03:34:41;;;;;;;4.80;4.50;;;;;;;3.15;74.95;100689.63;5011949;28;20229;-80
2020/12/25 03:37:07;;;;;;;5.23;4.73;;;;;;;3.19;75.67;100683.66;5021110;28;20199;-80
2020/12/25 03:39:33;;;;;;;4.43;4.10;;;;;;;3.32;73.90;100698.47;5016599;28;20216;-80
2020/12/25 03:41:59;;;;;;;4.83;4.40;;;;;;;3.34;74.48;100703.66;5022828;28;20203;-80
2020/12/25 03:44:25;;;;;;;4.37;4.07;;;;;;;3.38;75.31;100703.72;5016928;28;20742;-82
2020/12/25 03:46:52;;;;;;;4.80;4.13;;;;;;;3.27;75.75;100702.72;5031026;28;20269;-79
2020/12/25 03:49:17;;;;;;;4.83;4.03;;;;;;;3.15;76.26;100692.19;5021109;28;20209;-79
2020/12/25 03:51:43;;;;;;;4.73;4.10;;;;;;;3.21;75.40;100701.75;5035373;28;20211;-80
2020/12/25 03:54:09;;;;;;;8.27;4.47;;;;;;;3.29;74.78;100703.63;5016818;28;20306;-79
2020/12/25 03:56:35;;;;;;;5.03;3.73;;;;;;;3.16;75.35;100705.13;5040398;28;20190;-79
2020/12/25 03:59:01;;;;;;;3.83;3.53;;;;;;;3.11;76.03;100698.16;5023423;28;20206;-79
2020/12/25 04:01:26;;;;;;;4.53;4.10;;;;;;;2.91;76.92;100709.00;5038887;28;20205;-79
2020/12/25 04:03:53;;;;;;;4.07;3.73;;;;;;;2.72;78.06;100709.56;5030101;28;20253;-79
2020/12/25 04:06:19;;;;;;;4.00;3.70;;;;;;;2.68;78.64;100715.50;5044885;28;20201;-79
2020/12/25 04:08:45;;;;;;;3.93;3.53;;;;;;;2.73;78.49;100713.88;5020510;28;20253;-80
2020/12/25 04:11:11;;;;;;;4.00;3.40;;;;;;;2.76;78.68;100714.78;5044386;28;20271;-81
2020/12/25 04:13:37;;;;;;;3.53;3.23;;;;;;;2.68;78.91;100718.09;5031420;28;20206;-82
2020/12/25 04:16:04;;;;;;;4.83;4.00;;;;;;;2.53;80.02;100718.66;5029451;28;20206;-82
2020/12/25 04:18:30;;;;;;;3.20;2.90;;;;;;;2.57;79.87;100728.19;5025997;28;20290;-82
2020/12/25 04:20:58;;;;;;;5.03;4.50;;;;;;;2.52;79.56;100735.84;5032654;28;20682;-83
2020/12/25 04:23:24;;;;;;;4.33;3.17;;;;;;;2.42;81.22;100749.41;5016768;28;20209;-81
2020/12/25 04:25:49;;;;;;;3.83;2.93;;;;;;;2.36;80.13;100755.28;5003104;28;20214;-81
2020/12/25 04:28:15;;;;;;;3.20;2.90;;;;;;;2.37;79.98;100762.16;5008785;28;20696;-81
2020/12/25 04:30:41;;;;;;;4.27;3.10;;;;;;;2.50;80.11;100754.69;5018844;28;20237;-81
2020/12/25 04:33:07;;;;;;;3.27;3.03;;;;;;;2.52;80.04;100768.47;5010012;28;20237;-81
2020/12/25 04:35:33;;;;;;;3.77;3.47;;;;;;;2.42;80.39;100764.84;5012964;28;20253;-81
2020/12/25 04:37:59;;;;;;;3.47;3.13;;;;;;;2.53;79.83;100767.63;5009251;28;20214;-80
2020/12/25 04:40:25;;;;;;;3.80;2.73;;;;;;;2.43;80.44;100778.59;5014678;28;20705;-81
2020/12/25 04:42:51;;;;;;;3.50;3.20;;;;;;;2.47;80.36;100770.94;5019269;28;20290;-81
2020/12/25 04:45:18;;;;;;;3.27;2.83;;;;;;;2.48;79.96;100777.84;5021600;28;20224;-81
2020/12/25 04:47:46;;;;;;;3.57;2.90;;;;;;;2.52;80.39;100776.22;5019253;28;20234;-81
2020/12/25 04:50:12;;;;;;;3.40;3.10;;;;;;;2.34;79.97;100781.88;5013732;28;20210;-81
2020/12/25 04:52:38;;;;;;;5.83;2.67;;;;;;;2.26;80.96;100780.81;5012382;28;20233;-81
2020/12/25 04:55:05;;;;;;;3.10;2.90;;;;;;;2.22;81.03;100782.47;5025406;28;20595;-81
2020/12/25 04:57:31;;;;;;;4.87;3.13;;;;;;;2.11;80.57;100789.97;5023519;28;20222;-81
2020/12/25 04:59:57;;;;;;;9.30;3.83;;;;;;;2.16;81.91;100798.69;5023082;28;20678;-82
2020/12/25 05:02:23;;;;;;;3.93;3.33;;;;;;;2.17;82.05;100795.25;5024864;28;20662;-81
2020/12/25 05:04:49;;;;;;;4.20;3.00;;;;;;;2.17;82.05;100794.38;5019869;28;20262;-80
2020/12/25 05:07:15;;;;;;;4.73;3.27;;;;;;;2.15;81.46;100796.91;5021202;28;20214;-81
2020/12/25 05:09:41;;;;;;;2.80;2.53;;;;;;;2.16;82.09;100798.69;5020223;28;20690;-81
2020/12/25 05:12:11;;;;;;;3.13;2.93;;;;;;;2.13;81.21;100808.91;5022366;28;20214;-80
2020/12/25 05:14:42;;;;;;;5.17;3.30;;;;;;;2.20;81.52;100807.34;5020380;28;20623;-81
2020/12/25 05:17:11;;;;;;;3.30;2.97;;;;;;;2.11;81.63;100808.00;5022829;28;20203;-80
2020/12/25 05:19:40;;;;;;;4.33;2.67;;;;;;;2.07;82.20;100808.75;5020787;28;20202;-80
2020/12/25 05:22:06;;;;;;;3.33;3.03;;;;;;;2.07;82.05;100801.03;5019477;28;20202;-81
2020/12/25 05:24:36;;;;;;;4.17;3.27;;;;;;;1.82;83.24;100798.75;5018332;28;20626;-81
2020/12/25 05:27:03;;;;;;;5.23;3.10;;;;;;;1.99;82.86;100807.75;5019241;28;20249;-80
2020/12/25 05:29:29;;;;;;;7.20;3.43;;;;;;;2.08;82.35;100807.06;5014719;28;20683;-80
2020/12/25 05:31:55;;;;;;;3.20;2.73;;;;;;;2.13;82.84;100815.75;5006825;28;20207;-81
2020/12/25 05:34:22;;;;;;;3.00;2.70;;;;;;;2.19;82.43;100813.31;5013451;28;20256;-81
2020/12/25 05:36:50;;;;;;;3.33;3.00;;;;;;;2.10;81.86;100819.16;5020166;28;20206;-81
2020/12/25 05:39:25;;;;;;;3.07;2.83;;;;;;;2.09;82.11;100816.53;5010459;28;20194;-80
2020/12/25 05:41:54;;;;;;;3.13;2.70;;;;;;;2.10;82.29;100824.28;5015136;28;20210;-81
2020/12/25 05:44:20;;;;;;;2.90;2.70;;;;;;;2.13;81.85;100829.50;5020593;28;20222;-80
2020/12/25 05:46:48;;;;;;;3.23;2.93;;;;;;;2.10;81.86;100823.41;5024558;28;20292;-81
2020/12/25 05:49:14;;;;;;;7.93;3.50;;;;;;;2.12;82.17;100832.03;5013425;28;20209;-80
2020/12/25 05:51:46;;;;;;;3.20;2.90;;;;;;;1.94;82.44;100823.09;5019457;28;20215;-81
2020/12/25 05:54:19;;;;;;;3.57;3.17;;;;;;;1.98;82.07;100829.16;5014674;28;20228;-80
2020/12/25 05:56:50;;;;;;;3.73;2.90;;;;;;;1.99;82.89;100825.75;5028382;28;20924;-81
2020/12/25 05:59:16;;;;;;;3.53;3.00;;;;;;;1.98;82.83;100842.03;5021589;28;20206;-80
2020/12/25 06:01:43;;;;;;;2.67;2.47;;;;;;;2.01;82.05;100842.09;5024870;28;20198;-81
2020/12/25 06:04:11;;;;;;;3.47;2.67;;;;;;;1.95;81.96;100840.25;5014121;28;20226;-81
2020/12/25 06:06:38;;;;;;;2.53;2.33;;;;;;;1.89;82.47;100840.13;5032183;28;20218;-81
2020/12/25 06:09:06;;;;;;;4.17;2.97;;;;;;;2.01;82.72;100856.69;5012277;28;20206;-81
2020/12/25 06:11:33;;;;;;;2.67;2.47;;;;;;;2.00;82.35;100848.06;5031895;28;20625;-80
2020/12/25 06:13:59;;;;;;;2.87;2.60;;;;;;;2.02;82.29;100853.25;5019697;28;20239;-80
2020/12/25 06:16:27;;;;;;;4.07;2.83;;;;;;;1.97;81.88;100856.59;5032985;28;20603;-81
2020/12/25 06:19:01;;;;;;;2.60;2.37;;;;;;;1.99;81.92;100859.22;5019681;28;20206;-80
2020/12/25 06:21:40;;;;;;;4.87;2.90;;;;;;;1.89;82.23;100863.28;5034158;28;20832;-80
2020/12/25 06:24:13;;;;;;;3.97;2.80;;;;;;;1.97;81.71;100866.91;5011139;28;20234;-80
2020/12/25 06:26:41;;;;;;;2.83;2.40;;;;;;;1.89;81.74;100873.59;5035244;28;20243;-81
2020/12/25 06:29:07;;;;;;;2.30;2.10;;;;;;;1.89;82.15;100867.56;5017533;28;20209;-80
2020/12/25 06:31:35;;;;;;;2.77;2.37;;;;;;;1.90;81.87;100877.03;5031163;28;20213;-81
2020/12/25 06:34:02;;;;;;;2.40;2.20;;;;;;;1.81;81.64;100872.53;5015280;28;20305;-81
2020/12/25 06:36:28;;;;;;;3.40;2.30;;;;;;;1.82;81.84;100884.56;5027551;28;20199;-80
2020/12/25 06:38:57;;;;;;;2.63;2.33;;;;;;;1.86;82.32;100888.09;5014511;28;20214;-80
2020/12/25 06:41:23;;;;;;;3.03;2.53;;;;;;;1.92;81.44;100885.66;5017891;28;20741;-81
2020/12/25 06:43:49;;;;;;;4.60;2.57;;;;;;;1.76;80.80;100892.13;5009834;28;20230;-81
2020/12/25 06:46:28;;;;;;;2.77;2.50;;;;;;;1.68;80.79;100893.66;5008592;28;20255;-80
2020/12/25 06:48:53;;;;;;;3.57;2.13;;;;;;;1.49;82.05;100898.34;5011955;28;20209;-80
2020/12/25 06:51:22;;;;;;;3.27;2.33;;;;;;;1.41;81.41;100902.44;5011794;28;21019;-80
2020/12/25 06:53:48;;;;;;;2.80;2.60;;;;;;;1.54;81.77;100904.47;5016550;28;20243;-81
2020/12/25 06:56:16;;;;;;;3.13;2.53;;;;;;;1.39;82.04;100904.97;5013641;28;20206;-81
2020/12/25 06:58:45;;;;;;;2.67;2.47;;;;;;;1.41;81.69;100907.59;5016275;28;20202;-80
2020/12/25 07:01:12;;;;;;;2.60;2.30;;;;;;;1.54;81.76;100912.19;5014438;28;20309;-80
2020/12/25 07:03:39;;;;;;;3.20;2.80;;;;;;;1.63;81.65;100915.84;5013365;28;20203;-82
2020/12/25 07:06:06;;;;;;;3.60;2.60;;;;;;;1.59;82.06;100920.03;5020230;28;20206;-80
2020/12/25 07:08:39;;;;;;;2.43;2.20;;;;;;;1.71;81.32;100919.47;5006475;28;20230;-80
2020/12/25 07:11:06;;;;;;;2.67;2.37;;;;;;;1.74;80.70;100925.53;5016736;28;20601;-80
2020/12/25 07:13:34;;;;;;;3.37;2.60;;;;;;;1.69;80.06;100926.28;5009671;28;20209;-80
2020/12/25 07:16:00;;;;;;;3.73;2.30;;;;;;;1.63;80.41;100924.44;5010626;28;20222;-81
2020/12/25 07:18:26;;;;;;;3.73;2.50;;;;;;;1.44;81.00;100940.22;5007604;28;20218;-80
2020/12/25 07:20:55;;;;;;;2.57;2.37;;;;;;;1.40;81.60;100936.69;5016030;28;20261;-80
2020/12/25 07:23:21;;;;;;;2.77;2.57;;;;;;;1.50;81.90;100945.53;5015914;28;20210;-81
2020/12/25 07:25:47;;;;;;;3.70;3.23;;;;;;;1.58;81.18;100947.44;5020611;28;20757;-80
2020/12/25 07:28:13;;;;;;;2.50;2.30;;;;;;;1.50;81.52;100945.53;5019347;28;20606;-80
2020/12/25 07:30:40;;;;;;;8.10;2.87;;;;;;;1.47;80.94;100954.03;5014418;28;20301;-80
2020/12/25 07:33:07;;;;;;;2.93;2.70;;;;;;;1.48;80.92;100953.19;5010773;28;20207;-80
2020/12/25 07:35:33;;;;;;;3.30;3.00;;;;;;;1.45;81.11;100958.28;5015796;28;20228;-80
2020/12/25 07:37:59;;;;;;;3.17;2.87;;;;;;;1.41;80.46;100955.56;5006164;28;20571;-80
2020/12/25 07:40:25;;;;;;;3.13;2.83;;;;;;;1.39;81.22;100958.97;5020830;28;20289;-80
2020/12/25 07:42:51;;;;;;;3.70;2.80;;;;;;;1.45;81.21;100966.00;5013511;28;20668;-81
2020/12/25 07:45:17;;;;;;;3.07;2.77;;;;;;;1.54;81.46;100966.22;5011215;28;20653;-80
2020/12/25 07:47:44;;;;;;;5.20;3.43;;;;;;;1.18;82.79;100976.38;5011625;28;20239;-80
2020/12/25 07:50:10;;;;;;;6.83;3.90;;;;;;;1.27;82.37;100973.19;5022803;28;20264;-80
2020/12/25 07:52:36;;;;;;;4.97;4.23;;;;;;;1.19;83.59;100979.00;5019047;28;20198;-80
2020/12/25 07:55:02;;;;;;;5.13;4.73;;;;;;;0.99;83.53;100986.16;5019691;28;20699;-80
2020/12/25 07:57:27;;;;;;;5.80;5.30;;;;;;;1.04;84.14;100990.56;5024293;28;20200;-80
2020/12/25 07:59:54;;;;;;;6.07;4.97;;;;;;;1.15;83.95;100989.13;5017999;28;20210;-80
2020/12/25 08:02:21;;;;;;;5.93;5.43;;;;;;;1.15;84.50;100995.19;5023582;28;20620;-80
2020/12/25 08:04:48;;;;;;;5.50;5.00;;;;;;;1.19;84.11;100991.88;5018590;28;20286;-80
2020/12/25 08:07:14;;;;;;;5.77;4.83;;;;;;;1.18;84.01;100995.25;5024356;28;20685;-81
2020/12/25 08:09:40;;;;;;;5.43;4.93;;;;;;;1.11;84.29;100990.78;5019230;28;20295;-79
2020/12/25 08:12:09;;;;;;;10.80;4.97;;;;;;;1.17;84.13;100998.66;5029802;28;20672;-80
2020/12/25 08:14:38;;;;;;;6.50;5.33;;;;;;;1.32;84.56;101005.06;5017714;28;20274;-80
2020/12/25 08:17:04;;;;;;;6.17;5.60;;;;;;;1.33;83.67;101010.25;5021591;28;20192;-81
2020/12/25 08:19:33;;;;;;;7.27;5.43;;;;;;;1.36;83.27;101006.88;5015766;28;20209;-80
2020/12/25 08:22:03;;;;;;;6.97;5.33;;;;;;;1.18;83.99;101005.53;5022832;28;20206;-81
2020/12/25 08:24:29;;;;;;;5.80;5.23;;;;;;;1.10;85.02;101008.72;5014346;28;20224;-81
2020/12/25 08:27:01;;;;;;;6.87;5.70;;;;;;;0.98;85.04;101020.38;5034750;28;20208;-80
2020/12/25 08:29:27;;;;;;;6.07;5.47;;;;;;;1.15;85.12;101028.59;5023944;28;20613;-80
2020/12/25 08:31:53;;;;;;;5.13;4.73;;;;;;;1.28;85.13;101034.09;5035978;28;20217;-80
2020/12/25 08:34:25;;;;;;;9.00;5.93;;;;;;;1.28;84.10;101032.38;5022922;28;20220;-80
2020/12/25 08:36:58;;;;;;;6.60;4.77;;;;;;;1.06;84.84;101028.31;5022060;28;20217;-80
2020/12/25 08:39:27;;;;;;;7.10;5.60;;;;;;;1.11;84.60;101031.91;5016863;28;20205;-80
2020/12/25 08:41:54;;;;;;;6.33;5.77;;;;;;;1.13;85.32;101035.41;5024162;28;20264;-80
2020/12/25 08:44:20;;;;;;;10.13;5.67;;;;;;;1.19;84.52;101030.44;5009151;28;20304;-80
2020/12/25 08:46:48;;;;;;;9.73;5.83;;;;;;;1.06;84.99;101032.59;5017426;28;20201;-82
2020/12/25 08:49:24;;;;;;;6.27;5.67;;;;;;;1.07;85.07;101037.78;5017266;28;20216;-80
2020/12/25 08:51:50;;;;;;;9.17;6.03;;;;;;;0.97;85.58;101036.66;5015430;28;20205;-80
2020/12/25 08:54:24;;;;;;;6.73;5.17;;;;;;;0.92;85.29;101052.75;5018473;28;20232;-80
2020/12/25 08:56:51;;;;;;;8.13;6.27;;;;;;;0.98;85.95;101051.22;5016515;28;20210;-81
2020/12/25 08:59:20;;;;;;;7.60;5.70;;;;;;;0.94;85.28;101056.25;5018920;28;20613;-80
2020/12/25 09:01:47;;;;;;;6.33;5.60;;;;;;;1.03;85.68;101061.66;5020347;28;20201;-80
2020/12/25 09:04:13;;;;;;;6.33;5.10;;;;;;;1.16;85.45;101058.63;5018381;28;20715;-80
2020/12/25 09:06:39;;;;;;;9.83;6.60;;;;;;;1.12;84.86;101061.06;5021143;28;20683;-80
2020/12/25 09:09:05;;;;;;;5.60;5.10;;;;;;;1.07;84.77;101066.06;5016312;28;20669;-80
2020/12/25 09:11:31;;;;;;;8.63;5.93;;;;;;;1.22;84.83;101073.34;5021692;28;20210;-79
2020/12/25 09:13:58;;;;;;;7.90;5.57;;;;;;;1.38;83.88;101074.66;5019832;28;20233;-80
2020/12/25 09:16:24;;;;;;;9.17;5.33;;;;;;;1.50;83.42;101058.72;5021592;28;20217;-81
2020/12/25 09:18:50;;;;;;;6.70;5.47;;;;;;;1.42;82.60;101066.22;5016963;28;20251;-80
2020/12/25 09:21:16;;;;;;;7.03;5.53;;;;;;;1.43;82.08;101069.66;5021326;28;20249;-80
2020/12/25 09:23:43;;;;;;;6.00;5.37;;;;;;;1.41;82.02;101061.91;5017998;28;20236;-80
2020/12/25 09:26:10;;;;;;;7.53;4.50;;;;;;;1.28;81.90;101070.97;5023697;28;20198;-81
2020/12/25 09:28:36;;;;;;;7.03;5.33;;;;;;;1.47;81.39;101064.66;5017719;28;20222;-80
2020/12/25 09:31:05;;;;;;;7.03;5.13;;;;;;;1.43;81.30;101067.97;5022937;28;20694;-81
2020/12/25 09:33:31;;;;;;;7.53;6.10;;;;;;;1.34;81.43;101066.00;5015336;28;20202;-80
2020/12/25 09:35:57;;;;;;;7.53;6.63;;;;;;;1.13;81.76;101073.06;5021174;28;20218;-80
2020/12/25 09:38:23;;;;;;;11.87;7.53;;;;;;;1.04;82.76;101067.69;5017436;28;20199;-80
2020/12/25 09:40:50;;;;;;;7.50;6.80;;;;;;;1.09;83.01;101066.09;5020948;28;20240;-81
2020/12/25 09:43:16;;;;;;;8.07;6.60;;;;;;;1.08;82.53;101067.81;5021124;28;20675;-81
2020/12/25 09:45:42;;;;;;;8.97;6.73;;;;;;;1.04;83.09;101070.25;5019916;28;20226;-81
2020/12/25 09:48:09;;;;;;;8.30;6.40;;;;;;;1.03;83.05;101066.81;5015927;28;20588;-81
2020/12/25 09:50:35;;;;;;;8.87;6.87;;;;;;;0.93;83.04;101062.19;5019375;28;20207;-81
2020/12/25 09:53:01;;;;;;;8.67;7.27;;;;;;;0.86;84.44;101062.84;5015849;28;20202;-81
2020/12/25 09:55:27;;;;;;;9.30;7.70;;;;;;;0.96;83.65;101060.59;5018575;28;20229;-80
2020/12/25 09:57:53;;;;;;;7.37;6.63;;;;;;;0.91;84.11;101069.88;5019181;28;20252;-80
2020/12/25 10:00:19;;;;;;;10.13;6.87;;;;;;;1.06;83.63;101061.75;5020305;28;20293;-81
2020/12/25 10:02:45;;;;;;;10.30;7.10;;;;;;;1.07;82.79;101068.66;5016903;28;20198;-80
2020/12/25 10:05:12;;;;;;;7.30;5.60;;;;;;;0.98;83.17;101071.78;5017597;28;20279;-80
2020/12/25 10:07:39;;;;;;;5.90;5.27;;;;;;;1.07;82.13;101071.22;5015144;28;20636;-80
2020/12/25 10:10:06;;;;;;;8.70;5.50;;;;;;;1.21;81.63;101078.44;5018862;28;20631;-80
2020/12/25 10:12:32;;;;;;;8.43;5.80;;;;;;;1.35;81.61;101090.03;5019110;28;20209;-83
2020/12/25 10:14:58;;;;;;;5.27;4.77;;;;;;;1.36;80.46;101084.91;5018241;28;20242;-81
2020/12/25 10:17:24;;;;;;;6.13;4.83;;;;;;;1.41;79.50;101089.31;5017606;28;20819;-81
2020/12/25 10:19:50;;;;;;;6.63;5.17;;;;;;;1.38;79.75;101090.97;5017096;28;20210;-82
2020/12/25 10:22:17;;;;;;;7.07;4.23;;;;;;;1.53;79.42;101085.41;5013051;28;20345;-85
2020/12/25 10:24:43;;;;;;;7.90;4.47;;;;;;;1.68;79.39;101090.09;5018471;28;20222;-82
2020/12/25 10:27:09;;;;;;;10.25;5.10;;;;;;;1.54;78.69;101094.84;5019951;28;20490;-83
2020/12/25 10:29:35;;;;;;;6.53;3.70;;;;;;;1.61;78.48;101095.91;5018253;28;20206;-83
2020/12/25 10:32:01;;;;;;;4.80;3.40;;;;;;;1.56;77.34;101090.63;5019609;28;20198;-82
2020/12/25 10:34:26;;;;;;;5.37;4.07;;;;;;;1.65;78.10;101084.88;5021008;28;20333;-83
2020/12/25 10:36:52;;;;;;;7.47;4.23;;;;;;;1.59;77.63;101082.13;5011319;28;20208;-83
2020/12/25 10:39:19;;;;;;;4.60;3.77;;;;;;;1.62;78.19;101082.19;5019212;28;20216;-82
2020/12/25 10:41:45;;;;;;;8.13;4.83;;;;;;;1.64;78.07;101085.69;5026113;28;20210;-82
2020/12/25 10:44:11;;;;;;;4.33;3.70;;;;;;;1.66;77.65;101088.31;5020061;28;20265;-83
2020/12/25 10:46:37;;;;;;;8.07;5.30;;;;;;;1.77;78.37;101094.63;5026257;28;20202;-82
2020/12/25 10:49:03;;;;;;;6.53;4.83;;;;;;;1.81;77.93;101085.31;5018959;28;20258;-82
2020/12/25 10:51:29;;;;;;;3.97;3.60;;;;;;;1.82;77.06;101081.88;5020844;28;20266;-82
2020/12/25 10:53:55;;;;;;;6.67;3.30;;;;;;;1.74;76.81;101087.69;5016566;28;20230;-82
2020/12/25 10:56:23;;;;;;;4.73;3.33;;;;;;;1.79;76.59;101087.81;5022909;28;20251;-82
2020/12/25 10:58:49;;;;;;;5.60;3.63;;;;;;;1.88;76.80;101088.06;5015272;28;20213;-82
2020/12/25 11:01:20;;;;;;;4.90;3.30;;;;;;;1.98;76.43;101089.19;5027580;28;20201;-82
2020/12/25 11:03:46;;;;;;;4.50;2.80;;;;;;;2.05;76.27;101087.66;5017150;28;20715;-83
2020/12/25 11:06:12;;;;;;;4.80;3.50;;;;;;;2.14;76.61;101093.03;5027350;28;20367;-82
2020/12/25 11:08:37;;;;;;;7.23;3.13;;;;;;;2.19;75.88;101094.88;5014332;28;20242;-82
2020/12/25 11:11:03;;;;;;;3.30;2.77;;;;;;;1.98;76.08;101089.19;5022411;28;20242;-82
2020/12/25 11:13:32;;;;;;;4.60;2.97;;;;;;;1.98;75.75;101087.50;5020468;28;20296;-83
2020/12/25 11:15:58;;;;;;;4.77;3.23;;;;;;;1.98;76.12;101092.66;5017607;28;20595;-80
2020/12/25 11:18:24;;;;;;;5.80;3.23;;;;;;;2.05;76.22;101091.09;5015497;28;20202;-82
2020/12/25 11:20:50;;;;;;;5.50;2.63;;;;;;;2.03;75.74;101085.03;5019489;28;20206;-81
2020/12/25 11:46:50;;;;;;;4.73;2.50;;;;;;;2.14;75.39;101083.63;4664524;28;10000417;-82
2020/12/25 11:49:16;;;;;;;5.10;2.13;;;;;;;2.20;75.49;101085.50;5008305;28;20777;-78
2020/12/25 11:51:42;;;;;;;43.17;23.03;;;;;;;2.27;75.54;101078.78;5014377;28;20213;-78
2020/12/25 11:54:08;;;;;;;8.70;4.23;;;;;;;2.27;74.97;101078.78;5005904;28;20226;-79